createdAt,value
2023-01-01T00:00:44.477Z,3.72
2023-01-01T00:03:11.373Z,3.97
2023-01-01T00:05:39.274Z,4.47
2023-01-01T00:08:07.156Z,4.47
2023-01-01T00:10:34.073Z,4.05
2023-01-01T00:13:00.958Z,3.58
2023-01-01T00:15:28.587Z,4.30
2023-01-01T00:17:56.405Z,3.78
2023-01-01T00:20:23.547Z,4.97
2023-01-01T00:22:55.880Z,4.55
2023-01-01T00:25:24.452Z,4.43
2023-01-01T00:27:52.289Z,4.78
2023-01-01T00:30:19.993Z,5.37
2023-01-01T00:32:56.107Z,5.22
2023-01-01T00:35:27.160Z,5.32
2023-01-01T00:37:55.587Z,5.00
2023-01-01T00:40:23.464Z,6.70
2023-01-01T00:42:50.691Z,5.68
2023-01-01T00:45:21.964Z,5.45
2023-01-01T00:47:51.534Z,5.65
2023-01-01T00:50:19.033Z,4.95
2023-01-01T00:52:46.754Z,4.78
2023-01-01T00:55:13.689Z,4.78
2023-01-01T00:57:40.773Z,6.10
2023-01-01T01:00:09.458Z,6.78
2023-01-01T01:02:36.369Z,5.40
2023-01-01T01:05:04.943Z,7.93
2023-01-01T01:07:39.354Z,7.68
2023-01-01T01:10:07.502Z,13.25
2023-01-01T01:12:35.561Z,27.48
2023-01-01T01:15:03.228Z,10.63
2023-01-01T01:17:30.254Z,9.05
2023-01-01T01:19:57.252Z,7.75
2023-01-01T01:22:28.376Z,10.30
2023-01-01T01:24:56.542Z,8.45
2023-01-01T01:27:23.765Z,8.13
2023-01-01T01:29:50.874Z,8.27
2023-01-01T01:32:17.689Z,8.43
2023-01-01T01:34:44.550Z,7.62
2023-01-01T01:37:12.227Z,7.10
2023-01-01T01:39:40.656Z,7.65
2023-01-01T01:42:07.850Z,5.00
2023-01-01T01:44:49.181Z,6.12
2023-01-01T01:47:37.767Z,7.37
2023-01-01T01:50:28.150Z,8.43
2023-01-01T01:53:12.749Z,4.72
2023-01-01T01:55:53.920Z,5.37
2023-01-01T01:58:21.346Z,4.37
2023-01-01T02:00:48.859Z,4.15
2023-01-01T02:03:22.603Z,5.15
2023-01-01T02:05:51.737Z,3.42
2023-01-01T02:08:20.487Z,5.00
2023-01-01T02:10:47.838Z,3.78
2023-01-01T02:13:15.185Z,4.10
2023-01-01T02:15:57.767Z,3.62
2023-01-01T02:18:28.455Z,4.05
2023-01-01T02:21:04.804Z,4.32
2023-01-01T02:23:47.043Z,3.78
2023-01-01T02:26:39.014Z,4.10
2023-01-01T02:29:36.576Z,4.07
2023-01-01T02:32:10.726Z,4.70
2023-01-01T02:34:47.739Z,3.75
2023-01-01T02:37:18.871Z,4.32
2023-01-01T02:39:51.695Z,3.40
2023-01-01T02:42:21.112Z,3.97
2023-01-01T02:44:51.975Z,4.65
2023-01-01T02:47:22.129Z,4.07
2023-01-01T02:50:01.082Z,3.62
2023-01-01T02:52:36.211Z,3.80
2023-01-01T02:55:14.890Z,3.47
2023-01-01T02:57:46.997Z,3.35
2023-01-01T03:00:31.953Z,3.42
2023-01-01T03:03:23.219Z,3.40
2023-01-01T03:06:11.988Z,3.22
2023-01-01T03:08:58.755Z,2.92
2023-01-01T03:11:42.998Z,3.78
2023-01-01T03:14:18.214Z,3.70
2023-01-01T03:17:04.310Z,4.00
2023-01-01T03:19:37.747Z,3.87
2023-01-01T03:22:29.306Z,3.75
2023-01-01T03:25:06.884Z,3.05
2023-01-01T03:27:38.117Z,3.65
2023-01-01T03:30:10.706Z,3.62
2023-01-01T03:33:01.421Z,3.20
2023-01-01T03:35:35.460Z,3.33
2023-01-01T03:38:06.487Z,3.33
2023-01-01T03:40:36.787Z,3.78
2023-01-01T03:43:09.812Z,4.18
2023-01-01T03:45:42.039Z,3.70
2023-01-01T03:48:10.300Z,3.83
2023-01-01T03:51:09.808Z,3.10
2023-01-01T03:53:42.636Z,3.92
2023-01-01T03:56:22.898Z,4.00
2023-01-01T03:59:07.472Z,3.35
